Time;durP1;ratioP1;P1;durP2;ratioP2;P2;SDS_P1;SDS_P2;PMS_P1;PMS_P2;Temp;Humidity;BMP_temperature;BMP_pressure;BME280_temperature;BME280_humidity;BME280_pressure;Samples;Min_cycle;Max_cycle;Signal;HPM_P1;HPM_P2
2021/07/10 00:01:31;;;;;;;8.68;3.90;;;666.10;1945.60;;;;;;5078690;28;20043;-76
2021/07/10 00:03:57;;;;;;;7.45;3.90;;;666.20;1945.60;;;;;;5063645;28;20753;-75
2021/07/10 00:06:24;;;;;;;5.75;3.45;;;666.20;1945.60;;;;;;5085600;28;20116;-76
2021/07/10 00:08:50;;;;;;;8.20;3.40;;;666.20;1945.60;;;;;;5057857;28;20042;-75
2021/07/10 00:11:15;;;;;;;6.43;3.75;;;666.20;1945.60;;;;;;5067248;28;20029;-75
2021/07/10 00:13:41;;;;;;;5.43;3.75;;;666.10;1971.20;;;;;;5083172;28;20028;-75
2021/07/10 00:16:07;;;;;;;6.38;3.67;;;666.10;1971.20;;;;;;5071132;28;20102;-75
2021/07/10 00:18:33;;;;;;;4.32;3.28;;;666.10;1971.20;;;;;;5075084;28;20046;-75
2021/07/10 00:20:58;;;;;;;8.23;4.03;;;665.80;1996.80;;;;;;5073432;28;20028;-75
2021/07/10 00:23:24;;;;;;;6.85;3.65;;;665.80;1996.80;;;;;;5062726;28;20571;-75
2021/07/10 00:25:50;;;;;;;6.15;3.70;;;665.80;1996.80;;;;;;5064701;28;20035;-75
2021/07/10 00:28:15;;;;;;;5.15;3.85;;;665.80;2022.40;;;;;;5056094;28;20039;-75
2021/07/10 00:30:41;;;;;;;6.47;3.97;;;665.80;2022.40;;;;;;5080674;28;20063;-76
2021/07/10 00:33:07;;;;;;;4.88;3.30;;;665.80;2022.40;;;;;;5074324;28;20099;-76
2021/07/10 00:35:33;;;;;;;5.00;3.58;;;665.80;2022.40;;;;;;5087270;28;20028;-75
2021/07/10 00:37:58;;;;;;;5.82;3.30;;;665.60;2048.00;;;;;;5068658;28;20061;-75
2021/07/10 00:40:24;;;;;;;6.72;4.75;;;640.90;2048.00;;;;;;5070408;28;20109;-75
2021/07/10 00:42:50;;;;;;;5.65;4.00;;;640.80;2048.00;;;;;;5087457;28;20043;-74
2021/07/10 00:45:16;;;;;;;4.82;3.20;;;640.70;2073.60;;;;;;5080864;28;20025;-74
2021/07/10 00:47:43;;;;;;;8.70;4.40;;;640.70;2073.60;;;;;;5079502;28;20029;-74
2021/07/10 00:50:23;;;;;;;8.35;4.32;;;640.60;2099.20;;;;;;5087888;28;20050;-74
2021/07/10 00:52:50;;;;;;;6.75;4.00;;;640.50;2099.20;;;;;;5084557;28;20020;-75
2021/07/10 00:55:17;;;;;;;7.40;3.90;;;640.40;2124.80;;;;;;5080214;28;20548;-75
2021/07/10 00:57:43;;;;;;;7.10;4.00;;;640.40;2124.80;;;;;;5086174;28;20710;-74
2021/07/10 01:00:12;;;;;;;7.32;4.75;;;640.30;2124.80;;;;;;5068150;28;20020;-75
2021/07/10 01:02:40;;;;;;;7.65;3.72;;;640.20;2150.40;;;;;;5075805;28;20031;-76
2021/07/10 01:05:10;;;;;;;6.55;4.13;;;640.10;2176.00;;;;;;5074291;28;20147;-76
2021/07/10 01:07:36;;;;;;;7.75;4.70;;;640.00;2201.60;;;;;;5059085;28;20043;-74
2021/07/10 01:10:03;;;;;;;7.50;4.30;;;640.00;2227.20;;;;;;5092005;28;20028;-75
2021/07/10 01:12:31;;;;;;;5.95;4.30;;;640.00;2227.20;;;;;;5077967;28;20036;-75
2021/07/10 01:14:57;;;;;;;8.70;4.57;;;615.30;2252.80;;;;;;5058392;28;20035;-75
2021/07/10 01:17:23;;;;;;;12.15;4.82;;;615.30;2252.80;;;;;;5075955;28;20028;-75
2021/07/10 01:20:09;;;;;;;6.70;4.15;;;615.30;2252.80;;;;;;5074023;28;20387;-76
2021/07/10 01:22:40;;;;;;;6.93;5.30;;;615.30;2252.80;;;;;;5069769;28;20119;-75
2021/07/10 01:25:09;;;;;;;5.03;4.47;;;615.30;2278.40;;;;;;5063613;28;20036;-75
2021/07/10 01:27:35;;;;;;;7.80;5.50;;;615.30;2278.40;;;;;;5063875;28;20029;-75
2021/07/10 01:30:10;;;;;;;7.78;5.05;;;615.20;2304.00;;;;;;5063827;28;20047;-75
2021/07/10 01:32:37;;;;;;;7.93;6.15;;;615.10;2329.60;;;;;;5082214;28;20028;-75
2021/07/10 01:35:04;;;;;;;9.95;6.90;;;615.10;2329.60;;;;;;5073359;28;20024;-74
2021/07/10 01:37:30;;;;;;;6.90;5.72;;;615.00;2355.20;;;;;;5090232;28;20083;-74
2021/07/10 01:39:55;;;;;;;8.90;5.20;;;615.00;2380.80;;;;;;5089377;28;20628;-76
2021/07/10 01:42:21;;;;;;;6.78;5.40;;;615.00;2380.80;;;;;;5085542;28;20059;-75
2021/07/10 01:44:49;;;;;;;7.10;5.60;;;615.00;2406.40;;;;;;5069680;28;20016;-75
2021/07/10 01:47:15;;;;;;;10.57;5.65;;;615.00;2406.40;;;;;;5084403;28;20020;-75
2021/07/10 01:49:41;;;;;;;9.52;5.75;;;615.00;2432.00;;;;;;5082625;28;20020;-75
2021/07/10 01:52:07;;;;;;;11.13;6.63;;;615.00;2432.00;;;;;;5074916;28;20035;-75
2021/07/10 01:54:33;;;;;;;8.52;6.13;;;615.00;2432.00;;;;;;5055496;28;20036;-74
2021/07/10 01:56:58;;;;;;;12.75;6.30;;;615.00;2432.00;;;;;;5078215;28;20514;-75
2021/07/10 01:59:24;;;;;;;8.20;6.00;;;615.00;2432.00;;;;;;5076817;28;20490;-75
2021/07/10 02:01:51;;;;;;;8.80;5.60;;;615.10;2432.00;;;;;;5076199;28;20021;-75
2021/07/10 02:04:22;;;;;;;13.23;6.35;;;615.10;2432.00;;;;;;5068955;28;20032;-76
2021/07/10 02:06:48;;;;;;;11.57;6.80;;;615.00;2432.00;;;;;;5064425;28;20660;-76
2021/07/10 02:09:15;;;;;;;8.68;6.30;;;615.00;2432.00;;;;;;5087053;28;20790;-75
2021/07/10 02:11:59;;;;;;;9.18;5.93;;;614.90;2432.00;;;;;;5067811;28;20517;-75
2021/07/10 02:14:24;;;;;;;7.57;6.28;;;614.90;2432.00;;;;;;5080319;28;20094;-75
2021/07/10 02:16:50;;;;;;;9.98;7.03;;;614.90;2432.00;;;;;;5074678;28;20028;-74
2021/07/10 02:19:16;;;;;;;15.50;8.00;;;614.90;2432.00;;;;;;5074698;28;20433;-76
2021/07/10 02:21:42;;;;;;;10.23;7.15;;;614.80;2432.00;;;;;;5076187;28;20024;-75
2021/07/10 02:24:08;;;;;;;9.95;7.43;;;614.60;2432.00;;;;;;5070710;28;20387;-75
2021/07/10 02:26:36;;;;;;;12.30;7.10;;;614.60;2432.00;;;;;;5072551;28;20029;-74
2021/07/10 02:29:05;;;;;;;12.75;8.27;;;614.50;2432.00;;;;;;5068677;28;20046;-75
2021/07/10 02:31:30;;;;;;;15.10;9.48;;;614.40;2432.00;;;;;;5071092;28;20039;-76
2021/07/10 02:33:56;;;;;;;13.45;8.95;;;589.70;2432.00;;;;;;5074647;28;20024;-75
2021/07/10 02:36:22;;;;;;;13.18;8.80;;;589.70;2432.00;;;;;;5059392;28;20127;-76
2021/07/10 02:38:48;;;;;;;11.70;8.73;;;589.70;2432.00;;;;;;5071831;28;20035;-75
2021/07/10 02:41:14;;;;;;;14.00;9.05;;;589.60;2432.00;;;;;;5085389;28;20027;-75
2021/07/10 02:43:40;;;;;;;12.20;9.63;;;589.60;2432.00;;;;;;5060051;28;20424;-75
2021/07/10 02:46:06;;;;;;;11.63;8.45;;;589.50;2432.00;;;;;;5074466;28;20035;-75
2021/07/10 02:48:32;;;;;;;11.93;9.02;;;589.40;2432.00;;;;;;5083641;28;20506;-74
2021/07/10 02:50:58;;;;;;;13.05;9.80;;;589.40;2432.00;;;;;;5054305;28;20028;-74
2021/07/10 02:53:24;;;;;;;12.68;9.52;;;589.40;2432.00;;;;;;5072715;28;20020;-74
2021/07/10 02:55:49;;;;;;;13.38;10.32;;;589.50;2432.00;;;;;;5064142;28;20078;-74
2021/07/10 02:58:15;;;;;;;13.32;9.55;;;589.40;2432.00;;;;;;5086359;28;20484;-74
2021/07/10 03:00:41;;;;;;;19.30;11.25;;;589.40;2432.00;;;;;;5054259;28;20660;-74
2021/07/10 03:03:07;;;;;;;12.02;9.73;;;589.30;2432.00;;;;;;5060612;28;20476;-74
2021/07/10 03:05:37;;;;;;;11.20;9.43;;;589.40;2432.00;;;;;;5091636;28;20028;-76
2021/07/10 03:08:04;;;;;;;12.48;10.35;;;589.40;2432.00;;;;;;5091832;28;20039;-75
2021/07/10 03:10:30;;;;;;;11.02;8.85;;;589.40;2432.00;;;;;;5063080;28;20471;-75
2021/07/10 03:12:57;;;;;;;10.50;9.27;;;589.40;2432.00;;;;;;5076251;28;20115;-74
2021/07/10 03:15:24;;;;;;;11.13;9.55;;;589.40;2432.00;;;;;;5068694;28;20030;-74
2021/07/10 03:17:50;;;;;;;15.18;10.25;;;589.40;2432.00;;;;;;5057059;28;20036;-74
2021/07/10 03:20:18;;;;;;;13.88;9.40;;;589.40;2432.00;;;;;;5062574;28;20029;-74
2021/07/10 03:22:44;;;;;;;10.45;9.35;;;589.30;2432.00;;;;;;5071838;28;20020;-74
2021/07/10 03:25:11;;;;;;;10.63;9.25;;;589.40;2432.00;;;;;;5056991;28;20860;-74
2021/07/10 03:27:37;;;;;;;12.57;9.48;;;589.30;2432.00;;;;;;5073795;28;20053;-74
2021/07/10 03:30:05;;;;;;;13.70;10.35;;;589.30;2432.00;;;;;;5073021;28;20048;-74
2021/07/10 03:32:31;;;;;;;13.82;10.32;;;589.20;2432.00;;;;;;5080238;28;20112;-74
2021/07/10 03:34:57;;;;;;;15.15;10.02;;;589.30;2432.00;;;;;;5071697;28;20120;-74
2021/07/10 03:37:22;;;;;;;13.32;10.00;;;589.30;2432.00;;;;;;5061653;28;20055;-74
2021/07/10 03:39:48;;;;;;;14.80;10.60;;;589.30;2432.00;;;;;;5070859;28;20032;-75
2021/07/10 03:42:14;;;;;;;10.98;9.52;;;589.30;2432.00;;;;;;5077833;28;20490;-74
2021/07/10 03:44:39;;;;;;;11.70;9.20;;;589.30;2432.00;;;;;;5078522;28;20021;-75
2021/07/10 03:47:05;;;;;;;12.50;10.57;;;589.30;2432.00;;;;;;5076181;28;20020;-75
2021/07/10 03:49:31;;;;;;;15.68;11.35;;;589.50;2432.00;;;;;;5080671;28;20035;-76
2021/07/10 03:51:57;;;;;;;15.27;11.35;;;589.60;2432.00;;;;;;5067579;28;20064;-76
2021/07/10 03:54:23;;;;;;;15.88;9.80;;;589.70;2432.00;;;;;;5057260;28;20392;-75
2021/07/10 03:56:48;;;;;;;13.00;9.95;;;589.70;2432.00;;;;;;5076130;28;20035;-74
2021/07/10 03:59:14;;;;;;;12.98;9.27;;;589.70;2432.00;;;;;;5095212;28;20016;-74
2021/07/10 04:01:44;;;;;;;12.52;10.15;;;614.40;2432.00;;;;;;5075328;28;20158;-76
2021/07/10 04:04:11;;;;;;;14.40;10.02;;;589.70;2432.00;;;;;;5076670;28;20023;-77
2021/07/10 04:06:37;;;;;;;13.73;11.07;;;589.50;2432.00;;;;;;5077470;28;20040;-74
2021/07/10 04:09:03;;;;;;;13.73;10.23;;;589.50;2432.00;;;;;;5077489;28;20062;-74
2021/07/10 04:11:29;;;;;;;11.85;9.82;;;589.60;2432.00;;;;;;5067688;28;20036;-74
2021/07/10 04:13:55;;;;;;;12.43;10.27;;;589.70;2432.00;;;;;;5079140;28;20033;-74
2021/07/10 04:16:20;;;;;;;12.32;9.40;;;589.60;2432.00;;;;;;5082989;28;20030;-74
2021/07/10 04:18:46;;;;;;;15.52;9.40;;;614.40;2432.00;;;;;;5077019;28;20046;-75
2021/07/10 04:21:12;;;;;;;11.82;9.88;;;614.40;2432.00;;;;;;5071097;28;20029;-75
2021/07/10 04:23:38;;;;;;;13.20;9.80;;;614.50;2432.00;;;;;;5075133;28;20081;-75
2021/07/10 04:26:04;;;;;;;11.07;9.45;;;614.50;2432.00;;;;;;5074952;28;20025;-75
2021/07/10 04:28:30;;;;;;;12.23;9.98;;;614.50;2432.00;;;;;;5056956;28;20182;-74
2021/07/10 04:30:55;;;;;;;15.73;9.98;;;614.80;2432.00;;;;;;5081529;28;20560;-76
2021/07/10 04:33:21;;;;;;;13.43;8.95;;;615.00;2432.00;;;;;;5076649;28;20036;-75
2021/07/10 04:35:47;;;;;;;14.13;8.95;;;615.10;2432.00;;;;;;5082176;28;20352;-76
2021/07/10 04:38:13;;;;;;;11.40;8.23;;;615.30;2432.00;;;;;;5076998;28;20063;-76
2021/07/10 04:40:38;;;;;;;13.57;8.98;;;640.00;2432.00;;;;;;5098385;28;20024;-76
2021/07/10 04:43:05;;;;;;;9.70;8.07;;;640.10;2432.00;;;;;;5078359;28;20031;-76
2021/07/10 04:45:31;;;;;;;11.00;8.48;;;640.50;2432.00;;;;;;5067877;28;20031;-75
2021/07/10 04:47:57;;;;;;;14.23;7.50;;;640.60;2432.00;;;;;;5074703;28;20029;-75
2021/07/10 04:50:22;;;;;;;11.43;8.45;;;640.50;2432.00;;;;;;5076362;28;20502;-75
2021/07/10 04:52:48;;;;;;;10.98;8.07;;;640.70;2432.00;;;;;;5076410;28;20158;-76
2021/07/10 04:55:15;;;;;;;10.70;7.38;;;640.70;2432.00;;;;;;5081819;28;20475;-76
2021/07/10 04:57:45;;;;;;;10.75;7.55;;;640.70;2432.00;;;;;;5078587;28;20426;-75
2021/07/10 05:00:12;;;;;;;12.30;8.10;;;640.50;2432.00;;;;;;5083175;28;20074;-75
2021/07/10 05:02:39;;;;;;;9.07;7.32;;;640.60;2432.00;;;;;;5087837;28;20013;-75
2021/07/10 05:05:05;;;;;;;10.10;7.05;;;640.70;2432.00;;;;;;5083742;28;20026;-76
2021/07/10 05:07:31;;;;;;;8.85;6.50;;;640.90;2432.00;;;;;;5078307;28;20032;-75
2021/07/10 05:09:57;;;;;;;9.93;6.63;;;665.60;2432.00;;;;;;5081566;28;20038;-76
2021/07/10 05:12:22;;;;;;;9.80;5.55;;;665.60;2432.00;;;;;;5080758;28;20028;-76
2021/07/10 05:14:50;;;;;;;6.63;5.30;;;665.70;2432.00;;;;;;5077203;28;20029;-75
2021/07/10 05:17:20;;;;;;;8.93;6.10;;;665.90;2432.00;;;;;;5076252;28;20456;-76
2021/07/10 05:19:45;;;;;;;8.20;5.68;;;665.80;2432.00;;;;;;5087977;28;20023;-75
2021/07/10 05:22:12;;;;;;;7.63;5.63;;;665.70;2432.00;;;;;;5082187;28;20103;-74
2021/07/10 05:24:38;;;;;;;9.05;5.95;;;640.90;2432.00;;;;;;5066008;28;20016;-74
2021/07/10 05:27:04;;;;;;;6.78;5.60;;;640.80;2432.00;;;;;;5082493;28;20036;-74
2021/07/10 05:29:30;;;;;;;8.02;5.70;;;640.80;2432.00;;;;;;5074880;28;20051;-74
2021/07/10 05:31:56;;;;;;;8.48;5.28;;;640.90;2432.00;;;;;;5073887;28;20375;-76
2021/07/10 05:34:22;;;;;;;6.63;4.80;;;665.60;2432.00;;;;;;5081476;28;20024;-75
2021/07/10 05:36:48;;;;;;;9.45;5.93;;;665.80;2432.00;;;;;;5073217;28;20028;-76
2021/07/10 05:39:14;;;;;;;9.63;5.68;;;665.80;2432.00;;;;;;5073578;28;20046;-74
2021/07/10 05:41:40;;;;;;;9.40;5.35;;;665.80;2432.00;;;;;;5073385;28;20024;-75
2021/07/10 05:44:05;;;;;;;6.07;5.25;;;666.20;2432.00;;;;;;5073527;28;20091;-74
2021/07/10 05:46:31;;;;;;;8.63;5.88;;;666.30;2432.00;;;;;;5055358;28;20542;-75
2021/07/10 05:48:57;;;;;;;8.93;6.05;;;666.30;2432.00;;;;;;5061655;28;20023;-74
2021/07/10 05:51:23;;;;;;;14.02;9.43;;;666.30;2432.00;;;;;;5074636;28;20387;-73
2021/07/10 05:53:49;;;;;;;11.52;7.68;;;666.50;2432.00;;;;;;5069268;28;20028;-75
2021/07/10 05:56:15;;;;;;;9.23;5.57;;;691.40;2406.40;;;;;;5083877;28;20024;-73
2021/07/10 05:58:40;;;;;;;9.32;5.95;;;691.40;2406.40;;;;;;5073981;28;20073;-74
2021/07/10 06:01:06;;;;;;;9.48;5.90;;;691.40;2380.80;;;;;;5065123;28;20509;-73
2021/07/10 06:03:32;;;;;;;6.28;5.13;;;691.80;2380.80;;;;;;5069966;28;20421;-75
2021/07/10 06:05:57;;;;;;;6.50;5.38;;;692.10;2329.60;;;;;;5083895;28;20016;-73
2021/07/10 06:08:23;;;;;;;8.35;5.15;;;717.20;2304.00;;;;;;5059451;28;20064;-73
2021/07/10 06:10:49;;;;;;;9.43;6.20;;;717.50;2278.40;;;;;;5077503;28;20074;-72
2021/07/10 06:13:15;;;;;;;9.82;6.80;;;742.60;2278.40;;;;;;5063984;28;20078;-73
2021/07/10 06:15:41;;;;;;;12.30;6.72;;;742.80;2252.80;;;;;;5064209;28;20020;-73
2021/07/10 06:18:07;;;;;;;14.88;10.32;;;742.80;2252.80;;;;;;5081704;28;20471;-72
2021/07/10 06:20:34;;;;;;;7.38;6.15;;;743.00;2227.20;;;;;;5068324;28;20029;-72
2021/07/10 06:23:01;;;;;;;7.03;5.60;;;743.30;2201.60;;;;;;5077112;28;20025;-72
2021/07/10 06:25:27;;;;;;;7.63;5.65;;;743.30;2201.60;;;;;;5071727;28;20058;-73
2021/07/10 06:27:53;;;;;;;7.75;4.88;;;768.30;2176.00;;;;;;5078125;28;20081;-73
2021/07/10 06:30:19;;;;;;;6.88;4.90;;;768.50;2150.40;;;;;;5080083;28;20048;-73
2021/07/10 06:32:45;;;;;;;11.95;6.03;;;793.60;2124.80;;;;;;5072665;28;20032;-73
2021/07/10 06:35:12;;;;;;;8.25;5.53;;;793.60;2124.80;;;;;;5072105;28;20032;-74
2021/07/10 06:37:38;;;;;;;7.82;5.22;;;793.60;2124.80;;;;;;5054156;28;20037;-73
2021/07/10 06:40:06;;;;;;;9.00;5.55;;;768.70;2099.20;;;;;;5079242;28;20027;-73
2021/07/10 06:42:33;;;;;;;7.38;6.05;;;768.50;2124.80;;;;;;5083135;28;20021;-74
2021/07/10 06:44:59;;;;;;;8.43;5.40;;;768.30;2150.40;;;;;;5054629;28;20054;-73
2021/07/10 06:47:24;;;;;;;8.60;5.45;;;768.00;2150.40;;;;;;5086042;28;20102;-73
2021/07/10 06:49:50;;;;;;;9.57;5.53;;;768.10;2150.40;;;;;;5057962;28;20031;-73
2021/07/10 06:52:16;;;;;;;6.13;4.88;;;768.30;2124.80;;;;;;5077300;28;20031;-73
2021/07/10 06:54:42;;;;;;;9.52;5.65;;;768.70;2124.80;;;;;;5073815;28;20028;-73
2021/07/10 06:57:08;;;;;;;6.70;5.40;;;793.60;2099.20;;;;;;5087861;28;20062;-74
2021/07/10 06:59:33;;;;;;;8.02;6.05;;;794.00;2073.60;;;;;;5080960;28;20074;-73
2021/07/10 07:01:59;;;;;;;8.18;5.85;;;793.80;2099.20;;;;;;5067740;28;20547;-73
2021/07/10 07:04:25;;;;;;;6.80;5.57;;;768.70;2099.20;;;;;;5090567;28;20475;-73
2021/07/10 07:06:50;;;;;;;7.53;4.80;;;768.90;2099.20;;;;;;5087003;28;20445;-73
2021/07/10 07:09:16;;;;;;;9.15;5.32;;;793.60;2124.80;;;;;;5064591;28;20479;-72
2021/07/10 07:11:43;;;;;;;7.57;5.05;;;768.50;2124.80;;;;;;5061768;28;20111;-73
2021/07/10 07:14:09;;;;;;;10.13;5.40;;;768.50;2124.80;;;;;;5073874;28;20024;-73
2021/07/10 07:16:35;;;;;;;8.10;6.40;;;768.50;2124.80;;;;;;5089383;28;20497;-73
2021/07/10 07:19:01;;;;;;;9.52;6.57;;;768.50;2124.80;;;;;;5077287;28;20421;-72
2021/07/10 07:21:27;;;;;;;7.05;5.00;;;768.40;2150.40;;;;;;5077314;28;20056;-73
2021/07/10 07:23:54;;;;;;;8.02;5.72;;;768.20;2150.40;;;;;;5060956;28;20035;-74
2021/07/10 07:26:22;;;;;;;8.57;5.50;;;768.50;2150.40;;;;;;5083887;28;20028;-73
2021/07/10 07:28:48;;;;;;;15.57;6.05;;;768.40;2150.40;;;;;;5061024;28;20028;-73
2021/07/10 07:31:14;;;;;;;11.68;6.70;;;768.40;2150.40;;;;;;5063884;28;20051;-73
2021/07/10 07:33:39;;;;;;;21.63;16.90;;;768.50;2150.40;;;;;;5077026;28;20365;-72
2021/07/10 07:36:05;;;;;;;11.45;8.88;;;768.90;2124.80;;;;;;5070751;28;20029;-74
2021/07/10 07:38:32;;;;;;;7.53;5.55;;;768.70;2124.80;;;;;;5084454;28;20463;-73
2021/07/10 07:40:59;;;;;;;11.60;5.82;;;768.50;2150.40;;;;;;5082337;28;20016;-73
2021/07/10 07:43:25;;;;;;;14.95;12.80;;;768.70;2124.80;;;;;;5081298;28;20085;-75
2021/07/10 07:45:51;;;;;;;10.30;5.90;;;768.80;2124.80;;;;;;5064736;28;20024;-76
2021/07/10 07:48:18;;;;;;;9.63;7.35;;;793.80;2124.80;;;;;;5083430;28;20111;-75
2021/07/10 07:50:44;;;;;;;11.13;6.90;;;794.20;2099.20;;;;;;5081184;28;20436;-81
2021/07/10 07:53:10;;;;;;;9.88;6.10;;;794.50;2073.60;;;;;;5061007;28;20035;-76
2021/07/10 07:55:36;;;;;;;7.88;6.07;;;819.60;2022.40;;;;;;5078879;28;20024;-75
2021/07/10 07:58:05;;;;;;;9.63;5.72;;;820.10;1996.80;;;;;;5070961;28;20031;-75
2021/07/10 08:00:31;;;;;;;9.80;7.57;;;820.10;1971.20;;;;;;5060339;28;20035;-77
2021/07/10 08:02:58;;;;;;;11.32;6.30;;;844.90;1996.80;;;;;;5067752;28;20024;-78
2021/07/10 08:05:24;;;;;;;8.23;5.35;;;845.30;1971.20;;;;;;5083736;28;20020;-80
2021/07/10 08:07:50;;;;;;;13.88;5.75;;;845.50;1945.60;;;;;;5086832;28;20110;-79
2021/07/10 08:10:17;;;;;;;7.55;6.13;;;870.40;1894.40;;;;;;5078896;28;20036;-79
2021/07/10 08:12:45;;;;;;;7.85;6.32;;;871.10;1843.20;;;;;;5081640;28;20038;-79
2021/07/10 08:15:14;;;;;;;8.50;7.20;;;896.00;1817.60;;;;;;5067839;28;20024;-78
2021/07/10 08:17:40;;;;;;;9.45;6.60;;;871.10;1817.60;;;;;;5070477;28;20035;-78
2021/07/10 08:20:06;;;;;;;10.32;6.80;;;871.10;1817.60;;;;;;5084911;28;20029;-78
2021/07/10 08:22:33;;;;;;;10.82;7.05;;;870.90;1817.60;;;;;;5060299;28;20437;-78
2021/07/10 08:24:59;;;;;;;9.52;6.47;;;896.10;1766.40;;;;;;5081790;28;20528;-77
2021/07/10 08:27:25;;;;;;;8.88;7.15;;;896.40;1766.40;;;;;;5078765;28;20032;-79
2021/07/10 08:29:50;;;;;;;14.10;6.72;;;896.90;1689.60;;;;;;5080986;28;20067;-78
2021/07/10 08:32:16;;;;;;;8.07;6.35;;;922.00;1689.60;;;;;;5061455;28;20040;-78
2021/07/10 08:34:42;;;;;;;8.43;5.95;;;922.50;1638.40;;;;;;5079491;28;20085;-79
2021/07/10 08:37:08;;;;;;;7.60;6.25;;;947.50;1612.80;;;;;;5065251;28;20033;-78
2021/07/10 08:39:34;;;;;;;8.15;5.45;;;947.90;1561.60;;;;;;5081429;28;20039;-80
2021/07/10 08:42:00;;;;;;;8.05;6.50;;;948.10;1536.00;;;;;;5065614;28;20016;-79
2021/07/10 08:44:26;;;;;;;11.32;6.55;;;973.20;1510.40;;;;;;5082025;28;20028;-82
2021/07/10 08:46:53;;;;;;;9.88;5.53;;;973.40;1459.20;;;;;;5076813;28;20021;-83
2021/07/10 08:49:19;;;;;;;11.32;5.68;;;998.40;1484.80;;;;;;5078302;28;20028;-83
2021/07/10 08:51:47;;;;;;;11.63;6.50;;;998.90;1433.60;;;;;;5089493;28;20019;-84
2021/07/10 08:54:13;;;;;;;9.27;6.35;;;998.90;1433.60;;;;;;5066953;28;20035;-82
2021/07/10 08:56:41;;;;;;;9.48;5.60;;;998.90;1408.00;;;;;;5084695;28;20055;-81
2021/07/10 08:59:11;;;;;;;11.27;5.63;;;999.10;1382.40;;;;;;5078408;28;20017;-82
2021/07/10 09:01:38;;;;;;;10.13;6.07;;;1024.00;1331.20;;;;;;5066538;28;20028;-84
2021/07/10 09:04:05;;;;;;;8.18;6.13;;;1024.00;1331.20;;;;;;5064433;28;20128;-82
2021/07/10 09:06:31;;;;;;;7.82;5.97;;;1024.20;1305.60;;;;;;5085597;28;20032;-82
2021/07/10 09:08:57;;;;;;;9.77;5.65;;;1024.40;1305.60;;;;;;5080850;28;20086;-82
2021/07/10 09:11:24;;;;;;;6.45;4.95;;;1024.50;1280.00;;;;;;5076536;28;20029;-83
2021/07/10 09:13:54;;;;;;;6.72;5.65;;;1024.60;1280.00;;;;;;5063693;28;20037;-84
2021/07/10 09:16:32;;;;;;;9.90;6.70;;;1024.60;1254.40;;;;;;5073251;28;20078;-84
2021/07/10 09:19:06;;;;;;;8.23;5.88;;;1024.50;1254.40;;;;;;5081127;28;20016;-84
2021/07/10 09:21:45;;;;;;;13.50;7.18;;;999.30;1254.40;;;;;;5080347;28;20024;-83
2021/07/10 09:24:15;;;;;;;9.73;5.38;;;999.30;1280.00;;;;;;5074645;28;20070;-83
2021/07/10 09:26:46;;;;;;;6.32;4.80;;;1024.00;1254.40;;;;;;5072506;28;20032;-83
2021/07/10 09:29:17;;;;;;;7.53;5.13;;;1024.50;1203.20;;;;;;5082101;28;20320;-82
2021/07/10 09:31:47;;;;;;;7.88;4.82;;;1024.50;1228.80;;;;;;5064482;28;20052;-85
2021/07/10 09:34:16;;;;;;;6.90;5.25;;;1024.60;1203.20;;;;;;5088824;28;20078;-82
2021/07/10 09:36:52;;;;;;;10.60;5.28;;;1024.80;1177.60;;;;;;5087696;28;20028;-82
2021/07/10 09:39:18;;;;;;;6.43;4.88;;;1024.90;1203.20;;;;;;5070435;28;20029;-84
2021/07/10 09:41:45;;;;;;;7.20;5.13;;;1049.80;1177.60;;;;;;5063984;28;20021;-87
2021/07/10 09:44:15;;;;;;;6.78;4.88;;;1049.70;1203.20;;;;;;5064844;28;20036;-79
2021/07/10 09:46:42;;;;;;;6.80;4.55;;;1049.90;1152.00;;;;;;5083563;28;20028;-78
2021/07/10 09:49:30;;;;;;;9.43;4.82;;;1049.80;1177.60;;;;;;5070992;28;20653;-78
2021/07/10 09:52:08;;;;;;;6.47;5.80;;;1049.90;1177.60;;;;;;5065479;28;20046;-79
2021/07/10 09:54:42;;;;;;;8.32;6.35;;;1050.30;1177.60;;;;;;5091002;28;20020;-79
2021/07/10 09:57:14;;;;;;;11.60;5.67;;;1050.40;1177.60;;;;;;5073070;28;20394;-78
2021/07/10 09:59:54;;;;;;;8.15;5.70;;;1075.30;1152.00;;;;;;5077495;28;20036;-78
2021/07/10 10:02:32;;;;;;;7.63;4.35;;;1075.20;1152.00;;;;;;5072079;28;20113;-78
2021/07/10 10:05:08;;;;;;;7.53;6.25;;;1075.50;1126.40;;;;;;5085678;28;20017;-78
2021/07/10 10:08:03;;;;;;;7.93;5.28;;;1075.70;1126.40;;;;;;5067698;28;20036;-81
2021/07/10 10:10:33;;;;;;;6.43;5.57;;;1075.70;1126.40;;;;;;5009756;28;20038;-81
2021/07/10 10:13:04;;;;;;;10.25;5.72;;;1100.80;1126.40;;;;;;5012475;28;20038;-80
2021/07/10 10:15:34;;;;;;;7.85;4.93;;;1100.90;1126.40;;;;;;5005481;28;20054;-81
2021/07/10 10:18:00;;;;;;;5.97;4.65;;;1100.90;1075.20;;;;;;5000108;28;20034;-82
2021/07/10 10:20:26;;;;;;;7.72;4.95;;;1076.00;1075.20;;;;;;4993067;28;20042;-82
2021/07/10 10:22:52;;;;;;;7.05;5.40;;;1075.20;1126.40;;;;;;5009370;28;20041;-82
2021/07/10 10:25:19;;;;;;;8.25;6.00;;;1050.40;1152.00;;;;;;5009003;28;20111;-79
2021/07/10 10:27:48;;;;;;;8.23;5.55;;;1049.80;1177.60;;;;;;5008127;28;20046;-79
2021/07/10 10:30:16;;;;;;;6.90;5.20;;;1050.20;1177.60;;;;;;5004221;28;20125;-80
2021/07/10 10:32:43;;;;;;;8.10;5.93;;;1050.40;1152.00;;;;;;5009438;28;20112;-79
2021/07/10 10:35:09;;;;;;;7.10;5.72;;;1075.30;1152.00;;;;;;4993066;28;20397;-80
2021/07/10 10:37:37;;;;;;;6.47;5.43;;;1075.50;1126.40;;;;;;5009674;28;20061;-79
2021/07/10 10:40:10;;;;;;;6.40;5.20;;;1075.80;1152.00;;;;;;5009911;28;20042;-82
2021/07/10 10:42:37;;;;;;;7.53;5.50;;;1076.00;1126.40;;;;;;5009272;28;20041;-81
2021/07/10 10:45:05;;;;;;;8.32;5.70;;;1049.90;1228.80;;;;;;5010434;28;20025;-83
2021/07/10 10:47:49;;;;;;;9.68;5.38;;;1049.80;1228.80;;;;;;5055339;28;20131;-84
2021/07/10 10:50:19;;;;;;;5.82;5.22;;;1075.60;1152.00;;;;;;5087185;28;20037;-83
2021/07/10 10:52:47;;;;;;;6.65;5.00;;;1075.50;1177.60;;;;;;5085606;28;20059;-84
2021/07/10 10:55:20;;;;;;;10.35;6.13;;;1075.60;1177.60;;;;;;5071196;28;20039;-83
2021/07/10 10:57:52;;;;;;;6.45;5.22;;;1076.00;1152.00;;;;;;5085968;28;20021;-82
2021/07/10 11:00:27;;;;;;;9.35;6.55;;;1101.30;1100.80;;;;;;5069031;28;20028;-83
2021/07/10 11:02:56;;;;;;;;;;;1101.10;1075.20;;;;;;5068983;28;21496;-81
2021/07/10 11:05:33;;;;;;;8.10;5.57;;;1101.10;1075.20;;;;;;5071720;28;19908;-82
2021/07/10 11:08:18;;;;;;;10.40;5.28;;;1100.90;1126.40;;;;;;5086420;28;20031;-82
2021/07/10 11:10:53;;;;;;;7.13;5.00;;;1075.50;1177.60;;;;;;5070097;28;20036;-81
2021/07/10 11:13:30;;;;;;;;;;;1075.70;1152.00;;;;;;5086394;28;20024;-80
2021/07/10 11:16:05;;;;;;;8.85;5.30;;;1075.20;1177.60;;;;;;5082221;28;20019;-76
2021/07/10 11:18:47;;;;;;;7.28;5.03;;;1075.40;1177.60;;;;;;5070931;28;20028;-76
2021/07/10 11:21:41;;;;;;;9.82;5.32;;;1075.60;1152.00;;;;;;5082542;28;20032;-76
2021/07/10 11:24:19;;;;;;;9.50;6.00;;;1075.60;1152.00;;;;;;5089985;28;20109;-76
2021/07/10 11:26:54;;;;;;;10.32;6.18;;;1075.90;1126.40;;;;;;5067673;28;20044;-77
2021/07/10 11:29:40;;;;;;;8.30;4.78;;;1100.90;1100.80;;;;;;5069912;28;20031;-76
2021/07/10 11:32:12;;;;;;;12.30;6.50;;;1075.30;1126.40;;;;;;5054606;28;20123;-76
2021/07/10 11:34:47;;;;;;;6.13;5.25;;;1076.00;1100.80;;;;;;5077529;28;20028;-77
2021/07/10 11:37:15;;;;;;;8.93;5.60;;;1076.00;1100.80;;;;;;5082830;28;20483;-76
2021/07/10 11:39:42;;;;;;;8.05;4.75;;;1101.30;1075.20;;;;;;5066023;28;20032;-76
2021/07/10 11:42:21;;;;;;;7.57;4.35;;;1100.90;1075.20;;;;;;5082947;28;20027;-75
2021/07/10 11:45:10;;;;;;;10.27;5.50;;;1101.00;1075.20;;;;;;5087899;28;20024;-77
2021/07/10 11:47:48;;;;;;;7.63;5.75;;;1100.90;1075.20;;;;;;5082466;28;20021;-77
2021/07/10 11:50:25;;;;;;;10.60;6.70;;;1075.50;1100.80;;;;;;5062020;28;20028;-77
2021/07/10 11:52:58;;;;;;;5.47;4.75;;;1050.40;1100.80;;;;;;5061181;28;20379;-75
2021/07/10 11:55:25;;;;;;;7.97;5.15;;;1075.40;1075.20;;;;;;5088579;28;20070;-76
2021/07/10 11:57:52;;;;;;;5.53;5.00;;;1076.00;1049.60;;;;;;5058852;28;20028;-76
2021/07/10 12:00:18;;;;;;;5.85;5.22;;;1101.30;1075.20;;;;;;5059623;28;20103;-76
2021/07/10 12:02:44;;;;;;;8.55;6.40;;;1101.40;1075.20;;;;;;5055170;28;20051;-75
2021/07/10 12:05:23;;;;;;;5.82;5.28;;;1101.60;1075.20;;;;;;5082243;28;20030;-75
2021/07/10 12:08:00;;;;;;;9.93;5.05;;;1101.30;1075.20;;;;;;5077202;28;20107;-76
2021/07/10 12:10:38;;;;;;;9.02;5.82;;;1101.60;1075.20;;;;;;5076401;28;20064;-77
2021/07/10 12:13:22;;;;;;;5.68;4.75;;;1126.70;1049.60;;;;;;5070656;28;20031;-75
2021/07/10 12:16:06;;;;;;;7.68;5.30;;;1126.80;1049.60;;;;;;5088899;28;20048;-76